Time;durP1;ratioP1;P1;durP2;ratioP2;P2;SDS_P1;SDS_P2;PMS_P1;PMS_P2;Temp;Humidity;BMP_temperature;BMP_pressure;BME280_temperature;BME280_humidity;BME280_pressure;Samples;Min_cycle;Max_cycle;Signal;HPM_P1;HPM_P2
2021/11/22 05:01:20;;;;;;;29.57;19.20;;;6.20;99.90;;;;;;5612899;23;20493;-70
2021/11/22 05:03:49;;;;;;;27.57;17.80;;;6.20;99.90;;;;;;5016674;28;20445;-70
2021/11/22 05:06:16;;;;;;;29.50;18.37;;;6.30;99.90;;;;;;5016829;28;20453;-70
2021/11/22 05:08:42;;;;;;;26.20;18.80;;;6.30;99.90;;;;;;5016544;28;20456;-70
2021/11/22 05:11:09;;;;;;;31.10;17.83;;;6.30;99.90;;;;;;5016201;28;20469;-70
2021/11/22 05:13:36;;;;;;;31.00;19.97;;;6.30;99.90;;;;;;5015790;28;20478;-71
2021/11/22 05:16:02;;;;;;;26.60;18.03;;;6.30;99.90;;;;;;5016314;28;20461;-70
2021/11/22 05:18:30;;;;;;;25.07;18.20;;;6.30;99.90;;;;;;5016356;28;20457;-70
2021/11/22 05:20:57;;;;;;;27.77;17.40;;;6.30;99.90;;;;;;5016294;28;20849;-70
2021/11/22 05:23:24;;;;;;;27.53;17.20;;;6.30;99.90;;;;;;5016197;28;20936;-70
2021/11/22 05:25:50;;;;;;;23.33;16.63;;;6.30;99.90;;;;;;5015102;28;20852;-70
2021/11/22 05:28:18;;;;;;;24.07;17.20;;;6.30;99.90;;;;;;5015937;28;20856;-70
2021/11/22 05:30:44;;;;;;;26.87;17.20;;;6.30;99.90;;;;;;5016132;28;20516;-71
2021/11/22 05:33:11;;;;;;;24.20;16.60;;;6.30;99.90;;;;;;5016249;28;20503;-70
2021/11/22 05:35:39;;;;;;;24.70;18.00;;;6.30;99.90;;;;;;5016197;28;20458;-70
2021/11/22 05:38:06;;;;;;;26.47;16.73;;;6.30;99.90;;;;;;5017582;28;20937;-70
2021/11/22 05:40:32;;;;;;;22.73;16.23;;;6.20;99.90;;;;;;5016233;28;20480;-71
2021/11/22 05:43:00;;;;;;;22.70;15.87;;;6.20;99.90;;;;;;5015834;28;20964;-70
2021/11/22 05:45:27;;;;;;;23.80;16.13;;;6.20;99.90;;;;;;5016208;28;20449;-70
2021/11/22 05:47:54;;;;;;;22.07;14.77;;;6.20;99.90;;;;;;5016225;28;20778;-70
2021/11/22 05:50:22;;;;;;;22.27;15.13;;;6.20;99.90;;;;;;5015799;28;20453;-71
2021/11/22 05:52:52;;;;;;;22.13;15.50;;;6.30;99.90;;;;;;5015976;28;20457;-68
2021/11/22 05:55:32;;;;;;;22.40;15.80;;;6.20;99.90;;;;;;5015784;28;20481;-68
2021/11/22 05:57:59;;;;;;;19.70;15.13;;;6.50;99.90;;;;;;5015629;28;20852;-68
2021/11/22 06:00:25;;;;;;;17.20;13.67;;;7.00;99.90;;;;;;5015881;28;20829;-68
2021/11/22 06:02:52;;;;;;;17.20;12.37;;;7.00;99.90;;;;;;5016033;28;20438;-68
2021/11/22 06:05:19;;;;;;;15.17;12.53;;;7.20;99.90;;;;;;5015325;28;20449;-68
2021/11/22 06:07:46;;;;;;;13.63;12.20;;;7.30;99.90;;;;;;5015673;28;20453;-68
2021/11/22 06:10:14;;;;;;;13.27;11.90;;;7.50;99.90;;;;;;5015227;28;20453;-67
2021/11/22 06:12:41;;;;;;;14.97;11.43;;;7.60;99.90;;;;;;5015341;28;20941;-70
2021/11/22 06:15:08;;;;;;;15.40;12.07;;;7.40;99.90;;;;;;5015660;28;20819;-70
2021/11/22 06:17:35;;;;;;;14.03;12.00;;;7.40;99.90;;;;;;5015700;28;20453;-70
2021/11/22 06:20:02;;;;;;;14.87;12.53;;;7.20;99.90;;;;;;5015877;28;20515;-70
2021/11/22 06:22:28;;;;;;;16.53;13.20;;;7.20;99.90;;;;;;5015477;28;20477;-71
2021/11/22 06:24:55;;;;;;;16.30;13.03;;;7.00;99.90;;;;;;5015515;28;20499;-69
2021/11/22 06:27:24;;;;;;;16.37;12.43;;;7.00;99.90;;;;;;5015472;28;20508;-69
2021/11/22 06:29:51;;;;;;;16.07;12.23;;;6.80;99.90;;;;;;5015609;28;20511;-70
2021/11/22 06:32:18;;;;;;;15.00;12.40;;;6.70;99.90;;;;;;5014992;28;20480;-69
2021/11/22 06:34:46;;;;;;;15.47;12.03;;;6.70;99.90;;;;;;5015405;28;20473;-69
2021/11/22 06:37:13;;;;;;;14.53;12.03;;;6.60;99.90;;;;;;5014734;28;20944;-70
2021/11/22 06:39:40;;;;;;;20.00;13.70;;;6.60;99.90;;;;;;5015620;28;20512;-69
2021/11/22 06:42:07;;;;;;;17.77;13.53;;;6.50;99.90;;;;;;5015284;28;20535;-69
2021/11/22 06:44:35;;;;;;;17.90;13.63;;;6.50;99.90;;;;;;5015391;28;20453;-69
2021/11/22 06:47:02;;;;;;;17.97;14.03;;;6.40;99.90;;;;;;5015269;28;20944;-69
2021/11/22 06:49:29;;;;;;;16.33;13.10;;;6.50;99.90;;;;;;5015521;28;20464;-69
2021/11/22 06:51:56;;;;;;;16.90;12.23;;;6.40;99.90;;;;;;5015327;28;20532;-69
2021/11/22 06:54:23;;;;;;;18.50;12.50;;;6.40;99.90;;;;;;5015335;28;20477;-69
2021/11/22 06:56:50;;;;;;;21.50;14.30;;;6.40;99.90;;;;;;5014827;28;20798;-70
2021/11/22 06:59:16;;;;;;;19.57;12.77;;;6.40;99.90;;;;;;5014900;28;20477;-70
2021/11/22 07:01:44;;;;;;;17.97;13.00;;;6.40;99.90;;;;;;5014762;28;20538;-70
2021/11/22 07:04:11;;;;;;;17.10;13.20;;;6.40;99.90;;;;;;5015185;28;20450;-69
2021/11/22 07:06:38;;;;;;;19.80;14.30;;;6.30;99.90;;;;;;5015053;28;20465;-69
2021/11/22 07:09:05;;;;;;;18.20;13.90;;;6.40;99.90;;;;;;5021711;28;20457;-70
2021/11/22 07:11:32;;;;;;;17.20;13.37;;;6.40;99.90;;;;;;5016107;28;20844;-70
2021/11/22 07:14:02;;;;;;;19.47;13.93;;;6.40;99.90;;;;;;5017163;28;20504;-70
2021/11/22 07:16:29;;;;;;;19.13;13.40;;;6.40;99.90;;;;;;5016444;28;20464;-69
2021/11/22 07:18:57;;;;;;;19.73;14.77;;;6.30;99.90;;;;;;5016218;28;20476;-69
2021/11/22 07:21:24;;;;;;;16.17;13.00;;;6.40;99.90;;;;;;5014674;28;20481;-70
2021/11/22 07:23:51;;;;;;;19.80;13.27;;;6.40;99.90;;;;;;5014748;28;20468;-70
2021/11/22 07:26:18;;;;;;;19.00;13.50;;;6.30;99.90;;;;;;5014643;28;20460;-70
2021/11/22 07:28:45;;;;;;;19.17;13.30;;;6.30;99.90;;;;;;5015130;28;20441;-70
2021/11/22 07:31:12;;;;;;;20.03;13.43;;;6.40;99.90;;;;;;5014685;28;20839;-70
2021/11/22 07:33:38;;;;;;;18.07;12.47;;;6.40;99.90;;;;;;5014705;28;20907;-70
2021/11/22 07:36:07;;;;;;;18.63;12.97;;;6.40;99.90;;;;;;5013923;28;20488;-70
2021/11/22 07:38:35;;;;;;;21.47;14.40;;;6.50;99.90;;;;;;5014409;28;20488;-70
2021/11/22 07:41:02;;;;;;;18.10;12.90;;;6.50;99.90;;;;;;5014783;28;20486;-71
2021/11/22 07:43:28;;;;;;;18.67;13.73;;;6.50;99.90;;;;;;5015249;28;20457;-69
2021/11/22 07:45:55;;;;;;;18.40;13.40;;;6.50;99.90;;;;;;5014507;28;20507;-70
2021/11/22 07:48:21;;;;;;;17.77;12.40;;;6.50;99.90;;;;;;5015962;28;20509;-70
2021/11/22 07:50:48;;;;;;;17.20;12.70;;;6.60;99.90;;;;;;5033125;28;20473;-70
2021/11/22 07:53:16;;;;;;;19.50;12.30;;;6.60;99.90;;;;;;5034249;28;20450;-70
2021/11/22 07:55:45;;;;;;;16.93;12.43;;;6.60;99.90;;;;;;5017729;28;20473;-70
2021/11/22 07:58:11;;;;;;;16.13;12.17;;;6.70;99.90;;;;;;5018243;28;20460;-70
2021/11/22 08:00:38;;;;;;;19.90;13.00;;;6.60;99.90;;;;;;5017820;28;20493;-69
2021/11/22 08:03:05;;;;;;;20.63;12.70;;;6.60;99.90;;;;;;5017910;28;20444;-69
2021/11/22 08:05:33;;;;;;;16.77;12.07;;;6.60;99.90;;;;;;5017999;28;20499;-70
2021/11/22 08:08:00;;;;;;;18.17;13.13;;;6.70;99.90;;;;;;5018095;28;20453;-69
2021/11/22 08:10:29;;;;;;;17.53;11.93;;;6.70;99.90;;;;;;5017721;28;20457;-70
2021/11/22 08:12:58;;;;;;;17.97;12.67;;;6.80;99.90;;;;;;5017721;28;20457;-70
2021/11/22 08:15:26;;;;;;;17.37;13.00;;;6.80;99.90;;;;;;5017378;28;20485;-70
2021/11/22 08:17:52;;;;;;;14.97;11.40;;;6.80;99.90;;;;;;5017627;28;20543;-70
2021/11/22 08:20:21;;;;;;;16.23;11.87;;;6.80;99.90;;;;;;5017374;28;20508;-71
2021/11/22 08:22:48;;;;;;;14.77;11.77;;;6.90;99.90;;;;;;5017481;28;20508;-70
2021/11/22 08:25:16;;;;;;;19.40;12.30;;;6.80;99.90;;;;;;5017412;28;20479;-70
2021/11/22 08:27:45;;;;;;;16.50;13.10;;;6.80;99.90;;;;;;5017700;28;20449;-68
2021/11/22 08:30:14;;;;;;;18.73;11.83;;;6.80;99.90;;;;;;5017799;28;20813;-69
2021/11/22 08:32:43;;;;;;;23.53;13.47;;;6.80;99.90;;;;;;5017132;28;20456;-70
2021/11/22 08:35:09;;;;;;;16.40;11.90;;;6.80;99.90;;;;;;5017584;28;20500;-68
2021/11/22 08:37:37;;;;;;;17.37;12.90;;;6.80;99.90;;;;;;5017637;28;20465;-68
2021/11/22 08:40:07;;;;;;;15.20;11.40;;;6.80;99.90;;;;;;5018264;28;20453;-67
2021/11/22 08:42:33;;;;;;;15.10;12.90;;;6.80;99.90;;;;;;5020416;28;20473;-69
2021/11/22 08:45:02;;;;;;;16.37;13.10;;;6.80;99.90;;;;;;5017503;28;20821;-65
2021/11/22 08:47:29;;;;;;;17.97;14.13;;;7.30;99.90;;;;;;5017334;28;20461;-65
2021/11/22 08:49:56;;;;;;;13.10;10.07;;;7.30;99.90;;;;;;5017312;28;20461;-65
2021/11/22 08:52:25;;;;;;;11.97;10.63;;;7.60;99.90;;;;;;5016846;28;20476;-65
2021/11/22 08:54:52;;;;;;;16.17;9.90;;;7.80;99.90;;;;;;5016544;28;21045;-65
2021/11/22 08:57:20;;;;;;;10.83;9.70;;;8.10;99.90;;;;;;5016927;28;20825;-66
2021/11/22 08:59:47;;;;;;;10.80;9.80;;;8.20;99.90;;;;;;5016427;28;20464;-65
2021/11/22 09:02:16;;;;;;;10.67;9.57;;;8.10;99.90;;;;;;5016597;28;20849;-65
2021/11/22 09:04:43;;;;;;;11.10;9.57;;;8.20;99.90;;;;;;5017013;28;20456;-65
2021/11/22 09:07:10;;;;;;;9.30;8.40;;;8.30;99.90;;;;;;5016474;28;20932;-64
2021/11/22 09:09:36;;;;;;;9.80;8.80;;;8.30;99.90;;;;;;5016875;28;20459;-65
2021/11/22 09:12:03;;;;;;;11.30;8.40;;;8.40;99.90;;;;;;5016531;28;20469;-65
2021/11/22 09:14:30;;;;;;;10.60;9.60;;;8.50;99.90;;;;;;5016838;28;20456;-65
2021/11/22 09:16:56;;;;;;;8.10;7.40;;;8.60;99.90;;;;;;5016836;28;20882;-64
2021/11/22 09:19:24;;;;;;;9.60;8.70;;;8.70;99.90;;;;;;5016572;28;20508;-65
2021/11/22 09:21:51;;;;;;;10.37;8.03;;;8.60;99.90;;;;;;5016649;28;20473;-65
2021/11/22 09:24:18;;;;;;;9.27;8.30;;;8.70;99.90;;;;;;5016362;28;20523;-65
2021/11/22 09:26:45;;;;;;;9.73;8.60;;;8.70;99.90;;;;;;5016870;28;20457;-65
2021/11/22 09:29:12;;;;;;;9.77;8.77;;;8.80;99.90;;;;;;5017434;28;20564;-65
2021/11/22 09:31:38;;;;;;;10.30;7.93;;;8.80;99.90;;;;;;5016224;28;20477;-68
2021/11/22 09:34:05;;;;;;;10.37;9.30;;;8.80;99.90;;;;;;5016226;28;20461;-68
2021/11/22 09:36:33;;;;;;;10.00;9.10;;;8.90;99.90;;;;;;5016041;28;20480;-69
2021/11/22 09:39:00;;;;;;;10.27;9.37;;;8.80;99.90;;;;;;5016162;28;20446;-70
2021/11/22 09:41:28;;;;;;;11.60;10.00;;;8.70;99.90;;;;;;5015712;28;20507;-69
2021/11/22 09:43:57;;;;;;;11.97;10.47;;;8.70;99.90;;;;;;5015720;28;20554;-69
2021/11/22 09:46:24;;;;;;;12.27;10.97;;;8.40;99.90;;;;;;5015779;28;20458;-69
2021/11/22 09:48:51;;;;;;;17.47;11.30;;;8.30;99.90;;;;;;5016631;28;20457;-69
2021/11/22 09:51:18;;;;;;;12.47;11.20;;;8.30;99.90;;;;;;5016022;28;20480;-69
2021/11/22 09:53:47;;;;;;;13.60;11.97;;;8.20;99.90;;;;;;5015915;28;20523;-69
2021/11/22 09:56:13;;;;;;;13.90;11.27;;;8.10;99.90;;;;;;5015742;28;20481;-69
2021/11/22 09:58:40;;;;;;;13.87;12.40;;;8.10;99.90;;;;;;5018972;28;20457;-69
2021/11/22 10:01:12;;;;;;;17.80;12.73;;;8.00;99.90;;;;;;5031531;28;20477;-70
2021/11/22 10:03:38;;;;;;;13.37;12.07;;;8.00;99.90;;;;;;5021730;28;20474;-69
2021/11/22 10:06:05;;;;;;;14.80;12.13;;;8.00;99.90;;;;;;5016347;28;20945;-69
2021/11/22 10:08:40;;;;;;;17.70;13.83;;;7.90;99.90;;;;;;5015519;28;20453;-70
2021/11/22 10:11:12;;;;;;;16.57;12.73;;;8.00;99.90;;;;;;5015833;28;20473;-70
2021/11/22 10:13:40;;;;;;;16.20;12.20;;;7.90;99.90;;;;;;5015989;28;20460;-69
2021/11/22 10:16:24;;;;;;;15.67;12.37;;;7.80;99.90;;;;;;5015666;28;20596;-69
2021/11/22 10:18:53;;;;;;;16.17;12.17;;;7.80;99.90;;;;;;5015459;28;20944;-69
2021/11/22 10:21:22;;;;;;;14.80;12.20;;;7.80;99.90;;;;;;5014986;28;21005;-69
2021/11/22 10:23:51;;;;;;;15.93;11.77;;;7.80;99.90;;;;;;5015182;28;20454;-70
2021/11/22 10:26:19;;;;;;;13.70;11.10;;;7.80;99.90;;;;;;5015303;28;20507;-69
2021/11/22 10:28:48;;;;;;;18.50;10.97;;;7.80;99.90;;;;;;5015310;28;20453;-69
2021/11/22 10:31:18;;;;;;;13.37;11.00;;;7.80;99.90;;;;;;5015185;28;20470;-69
2021/11/22 10:33:46;;;;;;;16.90;10.40;;;7.80;99.90;;;;;;5014962;28;20991;-70
2021/11/22 10:36:16;;;;;;;12.80;11.30;;;7.60;99.90;;;;;;5014994;28;20509;-70
2021/11/22 10:38:45;;;;;;;13.13;10.53;;;7.50;99.90;;;;;;5014822;28;20837;-70
2021/11/22 10:41:14;;;;;;;13.10;11.17;;;7.50;99.90;;;;;;5015120;28;20527;-70
2021/11/22 10:43:49;;;;;;;19.37;11.30;;;7.50;99.90;;;;;;5014931;28;20508;-70
2021/11/22 10:46:17;;;;;;;14.97;10.73;;;7.50;99.90;;;;;;5015114;28;20527;-69
2021/11/22 10:48:49;;;;;;;15.33;11.07;;;7.50;99.90;;;;;;5014839;28;20457;-70
2021/11/22 10:51:20;;;;;;;10.27;9.33;;;7.50;99.90;;;;;;5014966;28;20568;-70
2021/11/22 10:53:48;;;;;;;12.90;10.30;;;7.50;99.90;;;;;;5014900;28;20468;-69
2021/11/22 10:56:18;;;;;;;11.53;9.97;;;7.50;99.90;;;;;;5014522;28;20535;-70
2021/11/22 10:58:50;;;;;;;12.53;9.83;;;7.50;99.90;;;;;;5014675;28;20464;-69
2021/11/22 11:01:33;;;;;;;11.13;9.70;;;7.60;99.90;;;;;;5014529;28;20584;-68
2021/11/22 11:04:05;;;;;;;15.83;10.97;;;7.60;99.90;;;;;;5015145;28;20441;-70
2021/11/22 11:06:53;;;;;;;15.47;8.93;;;7.70;99.90;;;;;;5015012;28;20437;-69
2021/11/22 11:09:24;;;;;;;10.67;8.90;;;7.70;99.90;;;;;;5014669;28;20442;-68
2021/11/22 11:11:56;;;;;;;11.60;9.57;;;7.80;99.90;;;;;;5014774;28;20528;-69
2021/11/22 11:14:26;;;;;;;11.97;8.03;;;7.80;99.90;;;;;;5014268;28;20916;-69
2021/11/22 11:16:54;;;;;;;11.10;8.40;;;7.80;99.90;;;;;;5014585;28;20752;-69
2021/11/22 11:19:21;;;;;;;13.17;9.27;;;7.80;99.90;;;;;;5014836;28;20493;-69
2021/11/22 11:21:49;;;;;;;9.77;8.30;;;7.80;99.90;;;;;;5014637;28;20477;-68
2021/11/22 11:24:18;;;;;;;9.03;8.10;;;7.90;99.90;;;;;;5013762;28;20461;-69
2021/11/22 11:26:49;;;;;;;12.00;7.33;;;7.80;99.90;;;;;;5014846;28;20512;-68
2021/11/22 11:29:16;;;;;;;9.07;8.17;;;7.80;99.90;;;;;;5014714;28;20472;-69
2021/11/22 11:31:44;;;;;;;8.70;7.03;;;7.80;99.90;;;;;;5017088;28;20477;-69
2021/11/22 11:34:13;;;;;;;11.93;8.23;;;7.80;99.90;;;;;;5014616;28;20453;-68
2021/11/22 11:37:30;;;;;;;7.50;6.90;;;7.80;99.90;;;;;;5015301;28;20489;-69
2021/11/22 11:40:22;;;;;;;11.00;7.60;;;7.70;99.90;;;;;;4975286;28;20510;-68
2021/11/22 11:43:34;;;;;;;16.23;8.20;;;7.80;99.90;;;;;;5016587;28;20449;-69
2021/11/22 11:46:03;;;;;;;10.07;7.00;;;7.90;99.90;;;;;;5014919;28;20441;-68
2021/11/22 11:48:40;;;;;;;7.50;6.77;;;7.90;99.90;;;;;;5014258;28;20453;-68
2021/11/22 11:51:10;;;;;;;8.00;7.17;;;8.00;99.90;;;;;;5014289;28;20516;-70
2021/11/22 11:53:38;;;;;;;10.17;7.53;;;8.00;99.90;;;;;;5014489;28;20441;-68
2021/11/22 11:56:11;;;;;;;8.80;7.33;;;8.00;99.90;;;;;;5014268;28;20534;-68
2021/11/22 11:58:41;;;;;;;7.33;6.63;;;8.00;99.90;;;;;;5014420;28;20780;-69
2021/11/22 12:01:13;;;;;;;6.97;6.27;;;8.00;99.90;;;;;;5014894;28;20489;-69
2021/11/22 12:04:07;;;;;;;9.37;6.60;;;8.00;99.90;;;;;;5015047;28;20517;-70
2021/11/22 12:06:48;;;;;;;6.93;6.17;;;7.90;99.90;;;;;;5014145;28;20964;-68
2021/11/22 12:09:33;;;;;;;10.27;6.90;;;7.90;99.90;;;;;;5014616;28;20434;-69
2021/11/22 12:12:00;;;;;;;7.23;6.53;;;7.90;99.90;;;;;;5014283;28;20481;-69
2021/11/22 12:14:50;;;;;;;6.70;6.00;;;7.90;99.90;;;;;;5014175;28;20503;-69
2021/11/22 12:18:04;;;;;;;8.50;6.00;;;7.90;99.90;;;;;;5014029;28;20526;-69
2021/11/22 12:20:46;;;;;;;8.23;5.97;;;7.80;99.90;;;;;;5014613;28;20472;-70
2021/11/22 12:23:17;;;;;;;7.30;6.60;;;7.80;99.90;;;;;;5014293;28;20503;-69
2021/11/22 12:25:47;;;;;;;10.90;5.53;;;7.80;99.90;;;;;;5014292;28;20430;-67
2021/11/22 12:28:36;;;;;;;9.37;5.37;;;7.80;99.90;;;;;;5013849;28;20551;-68
2021/11/22 12:31:06;;;;;;;6.10;5.47;;;7.80;99.90;;;;;;5013991;28;20500;-69
2021/11/22 12:33:38;;;;;;;5.10;4.60;;;7.80;99.90;;;;;;5013827;28;20904;-69
2021/11/22 12:36:07;;;;;;;6.73;6.03;;;7.90;99.90;;;;;;5017386;28;20476;-70
2021/11/22 12:38:35;;;;;;;6.00;5.50;;;7.90;99.90;;;;;;5017363;28;20532;-70
2021/11/22 12:41:03;;;;;;;6.30;4.97;;;7.90;99.90;;;;;;5017099;28;20476;-70
2021/11/22 12:43:41;;;;;;;8.47;5.43;;;8.00;99.90;;;;;;5017897;28;20522;-70
2021/11/22 12:46:11;;;;;;;6.17;4.97;;;8.10;99.90;;;;;;5017012;28;20433;-70
2021/11/22 12:48:39;;;;;;;7.30;5.23;;;8.10;99.90;;;;;;5017027;28;20936;-70
2021/11/22 12:51:08;;;;;;;5.03;4.60;;;8.10;99.90;;;;;;5016842;28;20488;-69
2021/11/22 12:53:35;;;;;;;7.90;5.20;;;8.10;99.90;;;;;;5016986;28;20968;-70
2021/11/22 12:56:06;;;;;;;6.07;4.70;;;8.20;99.90;;;;;;5016816;28;20477;-69
2021/11/22 12:58:34;;;;;;;5.83;5.13;;;8.20;99.90;;;;;;5017128;28;20446;-70
2021/11/22 13:01:03;;;;;;;8.77;5.00;;;8.20;99.90;;;;;;5016640;28;20489;-70
2021/11/22 13:03:32;;;;;;;5.23;4.20;;;8.20;99.90;;;;;;5016971;28;20461;-70
2021/11/22 13:06:02;;;;;;;4.73;4.33;;;8.20;99.90;;;;;;5016711;28;20453;-70
2021/11/22 13:08:43;;;;;;;4.97;3.93;;;8.20;99.90;;;;;;5016780;28;20460;-70
2021/11/22 13:11:41;;;;;;;4.40;4.00;;;8.20;99.90;;;;;;5018708;28;20477;-69
2021/11/22 13:14:09;;;;;;;4.60;4.20;;;8.10;99.90;;;;;;5025973;28;20444;-70
2021/11/22 13:16:37;;;;;;;5.47;4.97;;;7.90;99.90;;;;;;5021763;28;20980;-70
2021/11/22 13:19:07;;;;;;;6.50;4.40;;;7.90;99.90;;;;;;5016732;28;21007;-70
2021/11/22 13:21:38;;;;;;;6.13;4.50;;;7.90;99.90;;;;;;5016352;28;20477;-70
2021/11/22 13:24:07;;;;;;;3.67;3.47;;;7.90;99.90;;;;;;5016495;28;20456;-69
2021/11/22 13:26:35;;;;;;;5.17;4.60;;;7.90;99.90;;;;;;5016592;28;20449;-70
2021/11/22 13:29:04;;;;;;;6.13;4.27;;;7.90;99.90;;;;;;5016375;28;20458;-70
2021/11/22 13:31:34;;;;;;;4.80;4.20;;;7.90;99.90;;;;;;5016157;28;20873;-70
2021/11/22 13:34:03;;;;;;;5.20;4.77;;;7.80;99.90;;;;;;5016359;28;20448;-70
2021/11/22 13:36:34;;;;;;;6.27;4.53;;;7.90;99.90;;;;;;5016923;28;20505;-70
2021/11/22 13:39:14;;;;;;;4.50;4.10;;;7.90;99.90;;;;;;5016498;28;20445;-70
2021/11/22 13:41:41;;;;;;;4.77;4.37;;;8.00;99.90;;;;;;5016180;28;20477;-70
2021/11/22 13:44:11;;;;;;;5.80;3.70;;;8.00;99.90;;;;;;5016125;28;20453;-70
2021/11/22 13:46:41;;;;;;;4.37;4.00;;;8.00;99.90;;;;;;5014924;28;20449;-69
2021/11/22 13:49:09;;;;;;;4.13;3.83;;;8.00;99.90;;;;;;5016005;28;20448;-69
2021/11/22 13:51:38;;;;;;;4.50;4.10;;;8.10;99.90;;;;;;5015677;28;20476;-69
2021/11/22 13:54:07;;;;;;;4.63;4.23;;;8.10;99.90;;;;;;5015818;28;20460;-69
2021/11/22 13:56:39;;;;;;;4.80;4.40;;;8.10;99.90;;;;;;5015686;28;20503;-70
2021/11/22 13:59:16;;;;;;;4.47;4.07;;;8.10;99.90;;;;;;5015883;28;20442;-69
2021/11/22 14:01:44;;;;;;;5.30;4.40;;;8.10;99.90;;;;;;5015443;28;20489;-69
2021/11/22 14:04:11;;;;;;;4.20;3.90;;;8.10;99.90;;;;;;5015804;28;20508;-68
2021/11/22 14:06:41;;;;;;;3.90;3.70;;;8.10;99.90;;;;;;5016049;28;20450;-69
2021/11/22 14:09:07;;;;;;;5.07;4.67;;;8.10;99.90;;;;;;5015493;28;20507;-69
2021/11/22 14:11:34;;;;;;;6.70;4.20;;;8.10;99.90;;;;;;5015198;28;20477;-69
2021/11/22 14:14:02;;;;;;;3.93;3.67;;;8.10;99.90;;;;;;5015454;28;20453;-69
2021/11/22 14:16:30;;;;;;;4.20;3.80;;;8.00;99.90;;;;;;5015024;28;20478;-69
2021/11/22 14:18:57;;;;;;;3.97;3.67;;;8.00;99.90;;;;;;5015956;28;20457;-68
2021/11/22 14:21:29;;;;;;;4.00;3.80;;;7.80;99.90;;;;;;5030026;28;20504;-71
2021/11/22 14:24:12;;;;;;;4.00;3.63;;;7.80;99.90;;;;;;5030402;28;20453;-69
2021/11/22 14:26:40;;;;;;;6.27;3.90;;;7.80;99.90;;;;;;5017721;28;20921;-69
2021/11/22 14:29:13;;;;;;;4.03;3.73;;;7.70;99.90;;;;;;5016732;28;20460;-69
2021/11/22 14:31:46;;;;;;;4.47;4.07;;;7.70;99.90;;;;;;5016035;28;20838;-69
2021/11/22 14:34:14;;;;;;;3.63;3.43;;;7.70;99.90;;;;;;5014873;28;20853;-68
2021/11/22 14:36:44;;;;;;;3.93;3.20;;;7.70;99.90;;;;;;5014826;28;20482;-69
2021/11/22 14:39:12;;;;;;;6.10;3.80;;;7.60;99.90;;;;;;5014419;28;20940;-69
2021/11/22 14:41:43;;;;;;;5.63;3.57;;;7.70;99.90;;;;;;5014727;28;20524;-68
2021/11/22 14:44:10;;;;;;;3.50;3.30;;;7.70;99.90;;;;;;5015028;28;20434;-69
2021/11/22 14:46:38;;;;;;;3.80;3.27;;;7.80;99.90;;;;;;5017228;28;20479;-68
2021/11/22 14:49:08;;;;;;;3.10;2.80;;;7.80;99.90;;;;;;5014665;28;20460;-69
2021/11/22 14:51:40;;;;;;;3.20;3.00;;;7.80;99.90;;;;;;5015089;28;20539;-69
2021/11/22 14:54:09;;;;;;;3.77;3.57;;;7.80;99.90;;;;;;5014208;28;20444;-68
2021/11/22 14:56:40;;;;;;;3.60;2.97;;;7.70;99.90;;;;;;5014052;28;20814;-69
2021/11/22 14:59:20;;;;;;;5.07;3.50;;;7.80;99.90;;;;;;5014510;28;20446;-69
2021/11/22 15:01:50;;;;;;;6.00;4.20;;;7.80;99.90;;;;;;5013996;28;20485;-69
2021/11/22 15:04:25;;;;;;;4.13;3.53;;;7.80;99.90;;;;;;5013998;28;20461;-69
2021/11/22 15:06:53;;;;;;;3.60;3.30;;;7.80;99.90;;;;;;5014396;28;20467;-70
2021/11/22 15:09:25;;;;;;;4.80;3.70;;;7.80;99.90;;;;;;5014442;28;20481;-68
2021/11/22 15:11:56;;;;;;;3.20;2.90;;;7.70;99.90;;;;;;5014394;28;20477;-67
2021/11/22 15:14:39;;;;;;;3.80;3.50;;;7.70;99.90;;;;;;5014451;28;20460;-69
2021/11/22 15:17:07;;;;;;;3.10;2.80;;;7.60;99.90;;;;;;5013950;28;20964;-69
2021/11/22 15:19:36;;;;;;;3.70;3.40;;;7.50;99.90;;;;;;5014165;28;20453;-69
2021/11/22 15:22:06;;;;;;;3.63;3.43;;;7.50;99.90;;;;;;5014159;28;20473;-69
2021/11/22 15:24:33;;;;;;;3.90;3.17;;;7.50;99.90;;;;;;5014633;28;20507;-69
2021/11/22 15:27:02;;;;;;;3.10;3.00;;;7.50;99.90;;;;;;5014379;28;20453;-69
2021/11/22 15:29:30;;;;;;;3.27;2.97;;;7.50;99.90;;;;;;5014315;28;20504;-69
2021/11/22 15:32:00;;;;;;;8.70;3.80;;;7.50;99.90;;;;;;5014106;28;20473;-69
2021/11/22 15:34:29;;;;;;;3.70;3.00;;;7.60;99.90;;;;;;5013798;28;20860;-69
2021/11/22 15:36:56;;;;;;;2.70;2.50;;;7.50;99.90;;;;;;5013897;28;20484;-69
2021/11/22 15:39:25;;;;;;;2.87;2.67;;;7.40;99.90;;;;;;5014166;28;20547;-70
2021/11/22 15:41:54;;;;;;;3.20;2.97;;;7.40;99.90;;;;;;5013737;28;21034;-69
2021/11/22 15:44:22;;;;;;;2.70;2.60;;;7.40;99.90;;;;;;5013701;28;20449;-69
2021/11/22 15:46:49;;;;;;;3.50;3.00;;;7.30;99.90;;;;;;5014086;28;20476;-69
2021/11/22 15:49:16;;;;;;;3.70;2.93;;;7.30;99.90;;;;;;5014439;28;20460;-70
2021/11/22 15:51:43;;;;;;;2.80;2.60;;;7.30;99.90;;;;;;5013986;28;20528;-69
2021/11/22 15:54:11;;;;;;;2.93;2.73;;;7.20;99.90;;;;;;5014356;28;20479;-69
2021/11/22 15:56:38;;;;;;;3.40;2.87;;;7.20;99.90;;;;;;5014209;28;20457;-69
2021/11/22 15:59:06;;;;;;;2.90;2.70;;;7.20;99.90;;;;;;5013988;28;20461;-68
2021/11/22 16:01:35;;;;;;;3.03;2.70;;;7.20;99.90;;;;;;5013495;28;20547;-68
2021/11/22 16:04:03;;;;;;;2.80;2.70;;;7.20;99.90;;;;;;5013685;28;20461;-68
2021/11/22 16:06:31;;;;;;;3.60;2.80;;;7.20;99.90;;;;;;5013369;28;21032;-68
2021/11/22 16:08:58;;;;;;;3.63;3.33;;;7.20;99.90;;;;;;5014246;28;21003;-69
2021/11/22 16:11:25;;;;;;;5.43;3.80;;;7.10;99.90;;;;;;5017611;28;20499;-67
2021/11/22 16:13:51;;;;;;;3.47;3.27;;;7.10;99.90;;;;;;5017830;28;20453;-68
2021/11/22 16:16:18;;;;;;;5.80;3.53;;;7.00;99.90;;;;;;5018771;28;20499;-68
2021/11/22 16:18:47;;;;;;;4.38;3.97;;;7.10;99.90;;;;;;5019597;28;20807;-68
2021/11/22 16:21:14;;;;;;;4.20;3.90;;;7.20;99.90;;;;;;5017209;28;20292;-68
2021/11/22 16:23:40;;;;;;;3.97;3.57;;;7.20;99.90;;;;;;5017574;28;20500;-68
2021/11/22 16:26:07;;;;;;;5.03;3.80;;;7.20;99.90;;;;;;5017301;28;20459;-68
2021/11/22 16:28:35;;;;;;;6.57;3.80;;;7.30;99.90;;;;;;5016928;28;21005;-69
2021/11/22 16:31:01;;;;;;;5.07;3.50;;;7.40;99.90;;;;;;5016683;28;20988;-68
2021/11/22 16:33:28;;;;;;;4.07;3.77;;;7.40;99.90;;;;;;5016866;28;20453;-69
2021/11/22 16:35:57;;;;;;;4.50;3.47;;;7.30;99.90;;;;;;5017276;28;20457;-69
2021/11/22 16:38:24;;;;;;;4.07;3.77;;;7.30;99.90;;;;;;5016851;28;20573;-68
2021/11/22 16:40:52;;;;;;;3.80;3.50;;;7.30;99.90;;;;;;5016552;28;20473;-68
2021/11/22 16:43:22;;;;;;;4.30;4.00;;;7.40;99.90;;;;;;5016810;28;20544;-68
2021/11/22 16:45:49;;;;;;;3.20;3.00;;;7.50;99.90;;;;;;5016856;28;20981;-67
2021/11/22 16:48:16;;;;;;;4.00;3.60;;;7.50;99.90;;;;;;5016620;28;20454;-68
2021/11/22 16:50:43;;;;;;;4.03;3.40;;;7.50;99.90;;;;;;5016774;28;20473;-67
2021/11/22 16:53:11;;;;;;;3.30;3.10;;;7.50;99.90;;;;;;5016731;28;20457;-69
2021/11/22 16:55:38;;;;;;;3.23;3.00;;;7.50;99.90;;;;;;5016785;28;20454;-69
2021/11/22 16:58:05;;;;;;;3.97;3.63;;;7.40;99.90;;;;;;5016262;28;21151;-69
2021/11/22 17:00:33;;;;;;;3.37;3.00;;;7.40;99.90;;;;;;5016457;28;20497;-69
2021/11/22 17:03:00;;;;;;;4.33;3.83;;;7.50;99.90;;;;;;5016583;28;20488;-69
2021/11/22 17:05:27;;;;;;;3.17;2.90;;;7.50;99.90;;;;;;5016158;28;20461;-70
2021/11/22 17:07:59;;;;;;;4.77;3.83;;;7.50;99.90;;;;;;5016857;28;20499;-69
2021/11/22 17:10:28;;;;;;;3.50;3.30;;;7.40;99.90;;;;;;5016355;28;20988;-69
2021/11/22 17:12:54;;;;;;;3.33;3.13;;;7.50;99.90;;;;;;5016151;28;20945;-69
2021/11/22 17:15:22;;;;;;;3.30;3.00;;;7.50;99.90;;;;;;5016818;28;20957;-70
2021/11/22 17:17:49;;;;;;;3.97;3.03;;;7.50;99.90;;;;;;5017939;28;20470;-70
2021/11/22 17:20:20;;;;;;;2.70;2.50;;;7.50;99.90;;;;;;5017667;28;20455;-70
2021/11/22 17:22:47;;;;;;;3.27;3.07;;;7.40;99.90;;;;;;5019075;28;20469;-73
2021/11/22 17:25:15;;;;;;;3.00;2.80;;;7.50;99.90;;;;;;5017115;28;20468;-72
2021/11/22 17:27:44;;;;;;;3.77;3.47;;;7.50;99.90;;;;;;5016356;28;20559;-66
2021/11/22 17:30:13;;;;;;;3.97;3.07;;;7.50;99.90;;;;;;5016736;28;20512;-64
2021/11/22 17:32:40;;;;;;;2.53;2.33;;;7.60;99.90;;;;;;5016827;28;21016;-64
2021/11/22 17:35:08;;;;;;;2.80;2.60;;;7.60;99.90;;;;;;5016390;28;20460;-70
2021/11/22 17:37:35;;;;;;;2.70;2.50;;;7.60;99.90;;;;;;5016535;28;20477;-68
2021/11/22 17:40:02;;;;;;;3.20;3.00;;;7.60;99.90;;;;;;5016133;28;20453;-69
2021/11/22 17:42:28;;;;;;;3.37;3.17;;;7.60;99.90;;;;;;5016040;28;20528;-69
2021/11/22 17:44:56;;;;;;;3.00;2.83;;;7.50;99.90;;;;;;5015526;28;20907;-69
2021/11/22 17:47:23;;;;;;;3.03;2.93;;;7.50;99.90;;;;;;5016035;28;20453;-69
2021/11/22 17:49:50;;;;;;;3.47;2.80;;;7.50;99.90;;;;;;5018143;28;20449;-69
2021/11/22 17:52:18;;;;;;;4.10;3.10;;;7.40;99.90;;;;;;5015736;28;20811;-70
2021/11/22 17:54:44;;;;;;;3.60;3.30;;;7.30;99.90;;;;;;5015708;28;21040;-70
2021/11/22 17:57:12;;;;;;;2.93;2.67;;;7.30;99.90;;;;;;5015683;28;20458;-69
2021/11/22 17:59:38;;;;;;;2.60;2.50;;;7.30;99.90;;;;;;5015931;28;20457;-69